Time;durP1;ratioP1;P1;durP2;ratioP2;P2;SDS_P1;SDS_P2;PMS_P1;PMS_P2;Temp;Humidity;BMP_temperature;BMP_pressure;BME280_temperature;BME280_humidity;BME280_pressure;Samples;Min_cycle;Max_cycle;Signal;HPM_P1;HPM_P2
2022/05/02 05:02:12;;;;;;;19.33;14.18;;;10.60;99.90;;;;;;5579353;23;20044;-81
2022/05/02 05:04:38;;;;;;;22.45;14.85;;;10.60;99.90;;;;;;4931309;29;20206;-77
2022/05/02 05:07:04;;;;;;;22.75;16.17;;;10.60;99.90;;;;;;4924668;29;20019;-79
2022/05/02 05:09:31;;;;;;;29.08;18.40;;;10.60;99.90;;;;;;4942587;29;20047;-79
2022/05/02 05:12:06;;;;;;;27.58;18.58;;;10.60;99.90;;;;;;4926195;29;20032;-78
2022/05/02 05:18:08;;;;;;;28.15;18.40;;;10.60;99.90;;;;;;4926366;29;20184;-81
2022/05/02 05:20:56;;;;;;;26.08;17.73;;;10.60;99.90;;;;;;4925236;29;20032;-81
2022/05/02 05:23:55;;;;;;;23.33;15.77;;;10.70;99.90;;;;;;4929088;29;20063;-80
2022/05/02 05:26:36;;;;;;;22.45;15.77;;;10.80;99.90;;;;;;4944319;29;20031;-81
2022/05/02 05:29:14;;;;;;;22.45;16.23;;;10.80;99.90;;;;;;4943402;29;20217;-81
2022/05/02 05:31:42;;;;;;;23.37;15.13;;;10.90;99.90;;;;;;4943739;29;20110;-79
2022/05/02 05:34:27;;;;;;;21.85;16.13;;;10.90;99.90;;;;;;4944845;29;20031;-80
2022/05/02 05:36:59;;;;;;;22.77;15.10;;;11.00;99.90;;;;;;4945623;29;20031;-79
2022/05/02 05:39:58;;;;;;;21.60;16.52;;;11.10;99.90;;;;;;4940188;29;20246;-79
2022/05/02 05:43:04;;;;;;;19.05;14.98;;;11.10;99.90;;;;;;4936488;29;20050;-78
2022/05/02 05:45:29;;;;;;;22.38;15.50;;;11.20;99.90;;;;;;4910371;28;20040;-77
2022/05/02 05:48:06;;;;;;;21.02;15.68;;;11.30;99.90;;;;;;4935068;29;20058;-78
2022/05/02 05:50:37;;;;;;;19.10;14.60;;;11.30;99.90;;;;;;4928327;29;20217;-79
2022/05/02 05:53:21;;;;;;;22.10;15.50;;;11.40;99.90;;;;;;4924870;29;20252;-79
2022/05/02 05:56:06;;;;;;;21.67;15.73;;;11.50;99.90;;;;;;4924507;29;20199;-78
2022/05/02 05:58:53;;;;;;;24.00;15.95;;;11.50;99.90;;;;;;4941444;29;20040;-80
2022/05/02 06:01:47;;;;;;;21.38;14.82;;;11.50;99.90;;;;;;4944270;29;20047;-78
2022/05/02 06:04:15;;;;;;;18.27;13.93;;;11.60;99.90;;;;;;4927715;29;20048;-78
2022/05/02 06:06:41;;;;;;;23.38;15.13;;;11.70;99.90;;;;;;4925711;29;20028;-78
2022/05/02 06:09:10;;;;;;;21.65;15.32;;;11.90;99.90;;;;;;4924169;29;20115;-80
2022/05/02 06:11:39;;;;;;;20.20;14.73;;;11.90;99.90;;;;;;4929549;29;20043;-78
2022/05/02 06:14:06;;;;;;;22.42;17.15;;;12.00;99.90;;;;;;4907265;29;20031;-79
2022/05/02 06:19:25;;;;;;;21.00;16.15;;;12.10;99.90;;;;;;4924764;29;20302;-78
2022/05/02 06:21:53;;;;;;;20.42;15.57;;;12.20;99.90;;;;;;4925211;29;20068;-79
2022/05/02 06:24:19;;;;;;;21.10;16.52;;;12.30;99.90;;;;;;4924301;29;20032;-80
2022/05/02 06:26:46;;;;;;;21.48;15.48;;;12.40;99.90;;;;;;4909069;29;20073;-80
2022/05/02 06:29:13;;;;;;;21.05;15.85;;;12.40;99.90;;;;;;4905827;29;20318;-79
2022/05/02 06:31:47;;;;;;;20.38;15.93;;;12.50;99.90;;;;;;4905923;29;20088;-79
2022/05/02 06:34:18;;;;;;;18.92;15.52;;;12.70;99.90;;;;;;4938173;29;20062;-78
2022/05/02 06:37:16;;;;;;;19.10;15.75;;;12.80;99.70;;;;;;4944327;29;20051;-79
2022/05/02 06:40:24;;;;;;;21.58;14.80;;;12.70;99.70;;;;;;4944462;29;20127;-79
2022/05/02 06:42:52;;;;;;;25.17;16.90;;;12.90;99.50;;;;;;4934262;29;20080;-80
2022/05/02 06:45:45;;;;;;;22.85;16.02;;;13.00;98.80;;;;;;4924056;29;20087;-80
2022/05/02 06:48:22;;;;;;;25.35;17.73;;;13.00;98.80;;;;;;4925092;29;20096;-79
2022/05/02 06:50:55;;;;;;;22.92;17.00;;;13.10;98.60;;;;;;4924284;29;20035;-78
2022/05/02 06:53:46;;;;;;;24.23;17.27;;;13.30;98.70;;;;;;4913420;29;20028;-80
2022/05/02 06:56:46;;;;;;;24.50;16.85;;;13.50;98.30;;;;;;4935288;29;20039;-80
2022/05/02 06:59:32;;;;;;;21.83;14.45;;;13.60;97.70;;;;;;4929289;29;20337;-79
2022/05/02 07:02:08;;;;;;;20.40;16.33;;;13.70;97.30;;;;;;4932364;29;20040;-80
2022/05/02 07:04:51;;;;;;;23.50;16.40;;;13.70;96.80;;;;;;4940688;29;20091;-78
2022/05/02 07:07:20;;;;;;;25.33;17.75;;;13.80;96.80;;;;;;4946003;29;20036;-79
2022/05/02 07:09:51;;;;;;;22.65;16.45;;;13.90;96.40;;;;;;4936733;29;20071;-79
2022/05/02 07:12:23;;;;;;;21.02;15.82;;;13.90;96.10;;;;;;4946702;29;20024;-77
2022/05/02 07:15:04;;;;;;;25.60;17.27;;;13.90;96.50;;;;;;4930684;29;20031;-79
2022/05/02 07:17:56;;;;;;;24.75;18.02;;;14.10;96.50;;;;;;4932807;29;20282;-78
2022/05/02 07:20:32;;;;;;;23.73;17.15;;;14.20;96.20;;;;;;4928448;29;20028;-79
2022/05/02 07:23:39;;;;;;;25.40;18.15;;;14.30;95.80;;;;;;4926959;29;20099;-79
2022/05/02 07:26:13;;;;;;;21.65;16.63;;;14.30;95.80;;;;;;4909006;29;20044;-79
2022/05/02 07:28:47;;;;;;;23.80;16.02;;;14.30;95.70;;;;;;4909108;29;20029;-78
2022/05/02 07:31:21;;;;;;;25.48;16.75;;;14.50;95.60;;;;;;4908397;29;20048;-77
2022/05/02 07:33:50;;;;;;;21.75;15.95;;;14.70;95.00;;;;;;4929420;29;20047;-79
2022/05/02 07:36:24;;;;;;;21.48;16.13;;;14.80;95.20;;;;;;4946616;29;20278;-77
2022/05/02 07:38:59;;;;;;;21.75;15.73;;;14.90;94.70;;;;;;4947144;29;20031;-77
2022/05/02 07:41:26;;;;;;;21.25;16.35;;;15.10;94.20;;;;;;4919508;29;20112;-78
2022/05/02 07:44:17;;;;;;;24.85;16.52;;;15.20;93.80;;;;;;4927479;29;20024;-78
2022/05/02 07:46:45;;;;;;;23.23;15.35;;;15.20;93.70;;;;;;4926047;29;20358;-77
2022/05/02 07:49:15;;;;;;;22.92;16.70;;;15.30;93.90;;;;;;4927185;29;20032;-78
2022/05/02 07:51:47;;;;;;;21.08;15.70;;;15.40;93.60;;;;;;4927763;29;20110;-78
2022/05/02 07:54:24;;;;;;;22.70;16.30;;;15.40;93.60;;;;;;4926543;29;20040;-78
2022/05/02 07:56:51;;;;;;;20.35;16.23;;;15.50;93.40;;;;;;4927738;29;20063;-79
2022/05/02 07:59:21;;;;;;;19.52;15.82;;;15.60;93.10;;;;;;4927607;29;20031;-78
2022/05/02 08:01:47;;;;;;;21.67;16.67;;;15.60;93.20;;;;;;4926949;29;20087;-78
2022/05/02 08:04:14;;;;;;;21.48;16.30;;;15.70;93.20;;;;;;4926393;29;20035;-78
2022/05/02 08:06:45;;;;;;;21.73;16.38;;;15.80;93.10;;;;;;4927432;29;20040;-77
2022/05/02 08:09:38;;;;;;;23.08;16.80;;;15.70;93.20;;;;;;4928016;29;20418;-76
2022/05/02 08:12:11;;;;;;;23.08;16.63;;;15.90;93.10;;;;;;4945814;29;20047;-76
2022/05/02 08:15:03;;;;;;;21.73;16.67;;;16.00;92.90;;;;;;4945002;29;20038;-77
2022/05/02 08:17:33;;;;;;;20.13;16.40;;;16.00;92.60;;;;;;4933261;29;20149;-79
2022/05/02 08:20:16;;;;;;;21.02;16.05;;;16.00;92.70;;;;;;4925539;29;20231;-79
2022/05/02 08:29:07;;;;;;;18.45;14.63;;;16.30;91.60;;;;;;4902912;29;20072;-79
2022/05/02 08:31:56;;;;;;;21.45;17.40;;;16.50;91.70;;;;;;4908287;29;20055;-79
2022/05/02 08:34:36;;;;;;;;;;;16.70;91.10;;;;;;4924156;29;20051;-81
2022/05/02 08:37:27;;;;;;;20.65;16.15;;;16.70;90.90;;;;;;4925369;29;19911;-79
2022/05/02 08:40:13;;;;;;;21.98;16.02;;;16.80;90.70;;;;;;4925943;29;20035;-81
2022/05/02 08:42:58;;;;;;;20.27;14.95;;;16.90;90.40;;;;;;4925986;29;20024;-79
2022/05/02 08:46:04;;;;;;;20.42;15.40;;;17.00;90.70;;;;;;4926431;29;20063;-78
2022/05/02 08:48:48;;;;;;;19.85;15.57;;;17.00;90.00;;;;;;4900538;29;20180;-78
2022/05/02 08:51:31;;;;;;;18.38;15.45;;;16.90;90.10;;;;;;4925512;29;20032;-78
2022/05/02 08:53:58;;;;;;;20.50;16.13;;;17.00;90.50;;;;;;4926467;29;20032;-77
2022/05/02 08:57:14;;;;;;;20.17;16.33;;;17.10;89.00;;;;;;4925427;29;20055;-81
2022/05/02 09:00:02;;;;;;;21.30;15.60;;;17.10;89.70;;;;;;4868834;29;20085;-79
2022/05/02 09:02:58;;;;;;;19.60;16.10;;;17.00;88.90;;;;;;4867798;29;20373;-79
2022/05/02 09:06:03;;;;;;;19.38;13.35;;;16.90;88.80;;;;;;4853183;29;20382;-77
2022/05/02 09:08:53;;;;;;;18.83;14.32;;;17.20;87.80;;;;;;4858766;29;20045;-79
2022/05/02 09:11:35;;;;;;;19.02;13.65;;;17.30;87.20;;;;;;4885215;29;20056;-79
2022/05/02 09:14:19;;;;;;;14.35;12.15;;;17.40;87.70;;;;;;4887020;29;20045;-79
2022/05/02 09:16:48;;;;;;;12.65;10.18;;;17.70;84.80;;;;;;4878716;29;20069;-79
2022/05/02 09:19:26;;;;;;;;;;;17.90;83.20;;;;;;4868519;29;20052;-79
2022/05/02 09:22:03;;;;;;;13.65;8.98;;;18.00;82.20;;;;;;4867991;29;19908;-79
2022/05/02 09:24:59;;;;;;;10.60;8.05;;;18.10;82.10;;;;;;4868025;29;20040;-79
2022/05/02 09:27:54;;;;;;;10.68;8.63;;;18.10;81.90;;;;;;4868583;29;20041;-78
2022/05/02 09:30:23;;;;;;;13.27;8.82;;;18.10;80.90;;;;;;4852283;29;20041;-81
2022/05/02 09:33:22;;;;;;;13.65;9.77;;;18.40;81.50;;;;;;4868143;29;20033;-81
2022/05/02 09:35:54;;;;;;;11.70;9.02;;;18.80;80.60;;;;;;4913730;29;20052;-78
2022/05/02 09:38:25;;;;;;;11.55;8.68;;;18.90;80.00;;;;;;4925834;29;20107;-80
2022/05/02 09:41:00;;;;;;;10.95;8.20;;;18.80;79.90;;;;;;4921960;29;20028;-81
2022/05/02 09:50:06;;;;;;;10.52;8.30;;;19.30;76.60;;;;;;4906379;29;20056;-78
2022/05/02 09:52:48;;;;;;;11.00;8.38;;;19.70;77.00;;;;;;4909903;29;20059;-80
2022/05/02 09:58:33;;;;;;;9.95;7.63;;;19.70;77.30;;;;;;4918140;29;20069;-78
2022/05/02 10:01:16;;;;;;;12.15;9.13;;;19.50;77.80;;;;;;4914009;29;20047;-78
2022/05/02 10:04:05;;;;;;;11.68;8.38;;;19.30;76.80;;;;;;4912285;29;20059;-79
2022/05/02 10:06:31;;;;;;;;;;;19.40;77.90;;;;;;4916938;29;20043;-81
2022/05/02 10:09:03;;;;;;;11.32;8.57;;;19.50;77.60;;;;;;4915131;29;20152;-79
2022/05/02 10:11:54;;;;;;;10.02;8.40;;;19.60;77.80;;;;;;4944742;29;20028;-80
2022/05/02 10:14:19;;;;;;;10.60;8.70;;;19.60;76.70;;;;;;4944420;29;20031;-80
2022/05/02 10:16:55;;;;;;;11.38;8.30;;;19.70;77.00;;;;;;4936996;29;20090;-81
2022/05/02 10:19:42;;;;;;;11.30;8.35;;;19.70;76.40;;;;;;4925993;29;20047;-79
2022/05/02 10:22:22;;;;;;;8.93;7.38;;;19.60;76.20;;;;;;4926389;29;20040;-79
2022/05/02 10:25:01;;;;;;;8.20;7.07;;;19.70;77.20;;;;;;4927014;29;20028;-80
2022/05/02 10:27:50;;;;;;;8.43;6.93;;;20.00;75.80;;;;;;4926139;29;20036;-81
2022/05/02 10:30:19;;;;;;;10.32;7.45;;;20.40;73.70;;;;;;4921139;29;20278;-79
2022/05/02 10:32:50;;;;;;;8.68;7.03;;;20.60;74.50;;;;;;4914351;29;20045;-79
2022/05/02 10:35:18;;;;;;;5.85;5.13;;;20.60;74.10;;;;;;4926104;29;20032;-78
2022/05/02 10:37:57;;;;;;;6.90;5.17;;;20.60;70.40;;;;;;4925570;29;20198;-81
2022/05/02 10:40:35;;;;;;;6.45;4.75;;;20.90;70.60;;;;;;4909228;29;20075;-79
2022/05/02 10:43:04;;;;;;;6.88;4.47;;;21.20;67.90;;;;;;4910673;29;20044;-79
2022/05/02 10:45:33;;;;;;;5.18;4.00;;;21.50;68.20;;;;;;4915619;29;20422;-78
2022/05/02 10:48:17;;;;;;;5.13;3.95;;;21.90;68.00;;;;;;4912942;29;20104;-77
2022/05/02 10:51:04;;;;;;;5.88;4.38;;;22.40;67.60;;;;;;4893415;29;20059;-78
2022/05/02 10:53:42;;;;;;;4.65;4.05;;;22.30;66.20;;;;;;4916700;29;20123;-78
2022/05/02 10:56:19;;;;;;;7.45;4.60;;;22.20;65.50;;;;;;4928108;29;20266;-78
2022/05/02 10:58:45;;;;;;;5.17;4.23;;;22.10;66.00;;;;;;4929069;29;20074;-78
2022/05/02 11:01:42;;;;;;;4.88;3.70;;;22.20;65.40;;;;;;4921041;29;20063;-79
2022/05/02 11:04:14;;;;;;;4.88;4.38;;;22.50;65.40;;;;;;4914768;29;20044;-77
2022/05/02 11:07:08;;;;;;;10.07;4.57;;;22.40;65.20;;;;;;4927627;29;20040;-79
2022/05/02 11:09:43;;;;;;;6.88;4.05;;;22.80;65.40;;;;;;4920762;29;20027;-79
2022/05/02 11:12:14;;;;;;;5.75;4.10;;;23.20;63.80;;;;;;4925982;29;20111;-77
2022/05/02 11:14:57;;;;;;;4.65;3.78;;;23.70;62.20;;;;;;4923282;29;20055;-77
2022/05/02 11:17:56;;;;;;;5.55;4.50;;;24.00;62.50;;;;;;4887379;29;20044;-78
2022/05/02 11:20:41;;;;;;;6.13;4.75;;;24.20;62.60;;;;;;4901716;29;20048;-79
2022/05/02 11:23:28;;;;;;;6.88;5.00;;;24.40;62.30;;;;;;4911075;29;20036;-79
2022/05/02 11:26:37;;;;;;;7.03;4.80;;;24.40;62.50;;;;;;4923071;29;20139;-79
2022/05/02 11:29:03;;;;;;;5.65;4.15;;;25.10;62.50;;;;;;4917607;29;20214;-81
2022/05/02 11:31:40;;;;;;;9.48;5.15;;;25.30;62.10;;;;;;4906275;29;20058;-80
2022/05/02 11:34:43;;;;;;;11.00;5.15;;;25.60;61.30;;;;;;4888488;29;20048;-80
2022/05/02 11:37:20;;;;;;;8.02;5.57;;;26.70;61.20;;;;;;4883094;29;20095;-80
2022/05/02 11:40:05;;;;;;;7.32;5.22;;;27.10;58.50;;;;;;4925108;29;20028;-82
2022/05/02 11:42:33;;;;;;;5.45;4.20;;;26.60;58.30;;;;;;4913983;29;20318;-81
2022/05/02 11:45:14;;;;;;;5.60;4.18;;;26.10;58.90;;;;;;4927375;29;20078;-81
2022/05/02 11:47:40;;;;;;;4.95;4.10;;;26.40;58.40;;;;;;4926164;29;20044;-79
2022/05/02 11:50:10;;;;;;;6.97;4.05;;;26.20;59.40;;;;;;4915362;29;20152;-77
2022/05/02 11:52:38;;;;;;;6.40;3.80;;;26.30;59.40;;;;;;4908874;29;20033;-80
2022/05/02 11:55:10;;;;;;;6.53;4.15;;;27.10;58.40;;;;;;4908889;29;20058;-79
2022/05/02 11:57:41;;;;;;;6.05;3.83;;;27.30;57.60;;;;;;4891878;29;20036;-78
2022/05/02 12:00:12;;;;;;;4.90;3.80;;;27.60;57.20;;;;;;4908008;29;20036;-81
2022/05/02 12:02:38;;;;;;;5.50;3.97;;;28.40;56.50;;;;;;4917557;29;20308;-79
2022/05/02 12:05:18;;;;;;;6.80;3.65;;;28.00;56.40;;;;;;4913017;29;20031;-79
2022/05/02 12:08:04;;;;;;;4.65;3.30;;;27.40;56.10;;;;;;4927706;29;20230;-79
2022/05/02 12:10:33;;;;;;;4.22;3.08;;;27.60;56.40;;;;;;4936001;29;20035;-79
2022/05/02 12:13:00;;;;;;;8.60;3.15;;;27.90;56.10;;;;;;4946957;29;20037;-78
2022/05/02 12:15:26;;;;;;;3.80;2.97;;;27.70;54.90;;;;;;4945590;29;20363;-78
2022/05/02 12:18:04;;;;;;;5.28;3.25;;;26.60;55.30;;;;;;4921376;29;20055;-80
2022/05/02 12:20:37;;;;;;;4.15;2.80;;;26.50;56.90;;;;;;4912947;29;20211;-79
2022/05/02 12:23:16;;;;;;;5.35;2.97;;;26.70;55.90;;;;;;4926207;29;20039;-80
2022/05/02 12:25:54;;;;;;;4.30;3.10;;;27.40;55.80;;;;;;4919544;29;20044;-78
2022/05/02 12:28:42;;;;;;;4.28;3.63;;;27.30;55.50;;;;;;4927031;29;20099;-78
2022/05/02 12:31:22;;;;;;;4.72;3.22;;;28.30;55.10;;;;;;4924930;29;20040;-79
2022/05/02 12:33:57;;;;;;;5.00;3.75;;;28.10;55.10;;;;;;4918478;29;20032;-78
2022/05/02 12:36:47;;;;;;;4.00;3.33;;;27.20;56.00;;;;;;4916786;29;20052;-80
2022/05/02 12:51:16;;;;;;;4.18;2.80;;;29.40;55.30;;;;;;4924319;29;20377;-80
2022/05/02 13:00:39;;;;;;;3.85;2.25;;;31.10;52.20;;;;;;4886862;29;20017;-78
2022/05/02 13:03:10;;;;;;;4.22;2.30;;;33.50;49.50;;;;;;4886873;29;20060;-79
2022/05/02 13:05:41;;;;;;;4.50;1.98;;;34.20;48.30;;;;;;4886935;29;20052;-78
2022/05/02 13:23:40;;;;;;;4.38;2.60;;;27.90;53.40;;;;;;5404235;23;20063;-81
2022/05/02 13:26:12;;;;;;;4.28;2.78;;;28.20;52.90;;;;;;4944822;29;20035;-78
2022/05/02 13:47:50;;;;;;;3.97;2.92;;;27.80;53.50;;;;;;4958415;23;20377;-79
2022/05/02 13:50:22;;;;;;;5.53;3.00;;;27.80;54.60;;;;;;4944385;29;20036;-79
2022/05/02 13:53:10;;;;;;;4.00;3.00;;;27.30;55.40;;;;;;4943489;29;20364;-80
2022/05/02 13:55:50;;;;;;;2.90;2.30;;;26.70;56.40;;;;;;4940690;29;20068;-78
2022/05/02 13:58:36;;;;;;;5.57;2.58;;;26.40;55.50;;;;;;4944224;29;20318;-78
2022/05/02 14:01:26;;;;;;;4.60;2.60;;;26.30;55.60;;;;;;4943271;29;20336;-77
2022/05/02 14:04:01;;;;;;;3.20;2.33;;;26.00;54.60;;;;;;4948963;29;20042;-82
2022/05/02 14:06:36;;;;;;;3.13;1.90;;;26.40;54.90;;;;;;4948449;29;20039;-80
2022/05/02 14:09:02;;;;;;;4.30;2.22;;;26.90;56.80;;;;;;4944793;29;20286;-80
2022/05/02 14:11:29;;;;;;;3.72;2.47;;;27.20;54.00;;;;;;4935925;29;20039;-79
2022/05/02 14:29:27;;;;;;;5.10;2.05;;;34.40;48.80;;;;;;5897570;23;20331;-78
2022/05/02 14:32:11;;;;;;;3.45;2.20;;;37.00;46.80;;;;;;4910131;29;20091;-80
2022/05/02 14:34:52;;;;;;;3.50;2.08;;;38.30;45.30;;;;;;4908350;29;20044;-79
2022/05/02 14:37:52;;;;;;;2.42;1.60;;;37.30;45.30;;;;;;4908267;29;20064;-80
2022/05/02 14:40:21;;;;;;;3.72;1.73;;;35.20;45.50;;;;;;4908473;29;20036;-77
2022/05/02 14:42:49;;;;;;;3.33;2.00;;;33.20;47.10;;;;;;4908962;29;20047;-77
2022/05/02 14:45:15;;;;;;;4.15;2.08;;;32.00;48.10;;;;;;4892465;29;20183;-77
2022/05/02 14:47:42;;;;;;;4.15;1.90;;;30.60;48.60;;;;;;4908986;29;20024;-77
2022/05/02 14:50:09;;;;;;;2.47;1.88;;;29.20;50.20;;;;;;4896933;29;20053;-78
2022/05/02 14:52:39;;;;;;;5.37;2.60;;;28.20;51.30;;;;;;4908493;29;20067;-78
2022/05/02 14:55:10;;;;;;;4.10;2.40;;;27.40;52.40;;;;;;4908664;29;20360;-78
2022/05/02 14:57:43;;;;;;;4.28;3.03;;;26.80;53.20;;;;;;4913658;29;20028;-79
2022/05/02 15:00:13;;;;;;;4.05;2.95;;;25.90;54.20;;;;;;4910806;29;20103;-77
2022/05/02 15:02:41;;;;;;;4.13;2.70;;;25.80;54.90;;;;;;4912851;29;20068;-76
2022/05/02 15:05:14;;;;;;;3.23;2.40;;;25.50;55.50;;;;;;4908966;29;20062;-76
2022/05/02 15:08:11;;;;;;;5.47;2.53;;;25.10;56.20;;;;;;4908521;29;20370;-77
2022/05/02 15:10:55;;;;;;;3.75;2.80;;;24.90;56.20;;;;;;4908056;29;20103;-76
2022/05/02 15:13:42;;;;;;;4.82;2.53;;;24.90;55.70;;;;;;4892094;29;20032;-78
2022/05/02 15:16:52;;;;;;;3.90;2.38;;;24.90;55.40;;;;;;4891739;29;20056;-77
2022/05/02 15:19:36;;;;;;;3.83;2.58;;;25.50;56.90;;;;;;4908882;29;20048;-77
2022/05/02 15:22:15;;;;;;;4.05;2.67;;;26.70;54.40;;;;;;4909305;29;20037;-76
2022/05/02 15:25:07;;;;;;;3.33;2.47;;;28.80;53.20;;;;;;4909274;29;20341;-77
2022/05/02 15:36:40;;;;;;;2.92;2.40;;;32.30;48.20;;;;;;4907406;29;20040;-79
2022/05/02 15:39:16;;;;;;;4.38;2.20;;;31.40;48.80;;;;;;4908199;29;20068;-76
2022/05/02 15:41:43;;;;;;;4.45;2.50;;;31.60;49.40;;;;;;4889363;29;20028;-79
2022/05/02 15:44:20;;;;;;;4.13;2.30;;;32.30;49.00;;;;;;4884293;29;20056;-79
2022/05/02 15:46:52;;;;;;;3.45;2.58;;;31.80;48.80;;;;;;4897260;29;20033;-78
2022/05/02 15:49:20;;;;;;;4.57;2.53;;;31.40;49.60;;;;;;4907333;29;20052;-77
2022/05/02 15:52:06;;;;;;;3.65;2.08;;;31.40;49.80;;;;;;4892546;29;20064;-78
2022/05/02 15:54:34;;;;;;;3.92;2.78;;;31.10;51.30;;;;;;4891617;29;20036;-77
2022/05/02 15:57:00;;;;;;;3.45;2.63;;;30.40;51.00;;;;;;4907647;29;20028;-76
2022/05/02 15:59:38;;;;;;;3.00;2.08;;;30.40;51.00;;;;;;4891506;29;20025;-78
2022/05/02 16:02:08;;;;;;;5.68;3.05;;;30.50;50.40;;;;;;4908148;29;20111;-77
2022/05/02 16:04:36;;;;;;;3.50;2.60;;;29.90;50.90;;;;;;4908154;29;20037;-77
2022/05/02 16:10:29;;;;;;;5.22;2.92;;;29.20;51.80;;;;;;4872084;29;20504;-78
2022/05/02 16:12:45;;;;;;;4.10;3.20;;;27.80;53.60;;;;;;4887757;29;20354;-77
2022/05/02 16:15:13;;;;;;;4.82;2.80;;;27.20;54.00;;;;;;4871686;29;20121;-77
2022/05/02 16:17:48;;;;;;;3.80;3.20;;;26.60;55.60;;;;;;4887239;29;20067;-76
2022/05/02 16:20:15;;;;;;;5.50;2.72;;;26.50;55.50;;;;;;4869065;29;20095;-77
2022/05/02 16:22:43;;;;;;;3.92;3.38;;;26.40;55.80;;;;;;4869180;29;20304;-77
2022/05/02 16:25:21;;;;;;;3.80;2.77;;;26.70;55.70;;;;;;4865821;29;20045;-78
2022/05/02 16:27:47;;;;;;;4.28;2.90;;;27.50;54.20;;;;;;4838296;29;20047;-79
2022/05/02 16:30:18;;;;;;;4.10;2.85;;;28.20;53.40;;;;;;4852908;29;20045;-78
2022/05/02 16:32:45;;;;;;;3.60;3.00;;;29.00;52.90;;;;;;4868963;29;20324;-78
2022/05/02 16:35:14;;;;;;;5.57;2.77;;;29.40;52.70;;;;;;4869027;29;20044;-77
2022/05/02 16:37:43;;;;;;;4.97;3.03;;;29.70;52.50;;;;;;4875627;29;20047;-77
2022/05/02 16:40:10;;;;;;;;;;;29.90;52.10;;;;;;4889580;29;20033;-75
2022/05/02 16:42:44;;;;;;;4.93;3.30;;;29.50;52.40;;;;;;4892791;29;19907;-76
2022/05/02 16:45:12;;;;;;;3.55;3.03;;;28.60;53.10;;;;;;4905628;29;20319;-80
2022/05/02 16:47:40;;;;;;;5.60;2.92;;;28.20;53.30;;;;;;4906542;29;20029;-79
2022/05/02 16:50:08;;;;;;;5.50;3.03;;;28.20;53.60;;;;;;4906968;29;20052;-79
2022/05/02 16:52:34;;;;;;;;;;;27.80;54.20;;;;;;4906646;29;20218;-77
2022/05/02 16:55:00;;;;;;;3.75;3.15;;;26.90;54.70;;;;;;4891237;29;20014;-79
2022/05/02 16:57:39;;;;;;;3.97;3.00;;;26.60;55.50;;;;;;4905271;29;20045;-77
2022/05/02 17:00:23;;;;;;;4.70;3.08;;;26.10;55.90;;;;;;4902331;29;20110;-79
2022/05/02 17:02:56;;;;;;;5.85;2.63;;;25.70;56.70;;;;;;4906233;29;20040;-77
2022/05/02 17:05:23;;;;;;;4.32;2.83;;;25.10;57.20;;;;;;4907199;29;20087;-79
2022/05/02 17:07:51;;;;;;;4.75;3.83;;;24.70;58.00;;;;;;4906272;29;20050;-77
2022/05/02 17:10:21;;;;;;;5.33;4.20;;;24.50;58.50;;;;;;4907252;29;20036;-76
2022/05/02 17:12:47;;;;;;;5.18;3.88;;;24.00;59.70;;;;;;4905599;29;20052;-76
2022/05/02 17:15:13;;;;;;;7.05;4.15;;;23.90;60.40;;;;;;4906151;29;20012;-76
2022/05/02 17:17:40;;;;;;;4.65;3.63;;;23.70;60.40;;;;;;4906547;29;20360;-76
2022/05/02 17:20:07;;;;;;;5.32;3.90;;;23.30;61.00;;;;;;4906114;29;20059;-77
2022/05/02 17:22:52;;;;;;;4.88;3.67;;;23.00;61.80;;;;;;4906449;29;20038;-80
2022/05/02 17:25:22;;;;;;;4.68;3.95;;;22.80;61.90;;;;;;4906957;29;20259;-79
2022/05/02 17:27:51;;;;;;;5.97;3.70;;;22.60;62.20;;;;;;4905523;29;20549;-80
2022/05/02 17:30:18;;;;;;;7.15;5.00;;;22.30;63.10;;;;;;4906311;29;20105;-80
2022/05/02 17:32:53;;;;;;;6.97;5.25;;;22.10;63.80;;;;;;4902125;29;20291;-80
2022/05/02 17:35:32;;;;;;;9.30;5.70;;;21.80;64.40;;;;;;4888273;29;20072;-79
2022/05/02 17:38:00;;;;;;;7.90;5.65;;;21.80;64.90;;;;;;4885677;29;20024;-79
2022/05/02 17:40:33;;;;;;;8.03;5.67;;;21.80;65.00;;;;;;4906754;29;20017;-78
2022/05/02 17:42:59;;;;;;;9.25;5.25;;;21.90;65.10;;;;;;4907768;29;20021;-78
2022/05/02 17:46:00;;;;;;;7.15;4.90;;;22.10;65.00;;;;;;4889903;29;20032;-77
2022/05/02 17:48:29;;;;;;;8.02;5.53;;;22.30;65.40;;;;;;4905193;29;20084;-80
2022/05/02 17:51:08;;;;;;;11.88;6.20;;;22.20;65.30;;;;;;4905874;29;20080;-80
2022/05/02 17:53:33;;;;;;;;;;;21.90;65.80;;;;;;4906815;29;20100;-80
2022/05/02 17:56:01;;;;;;;8.80;6.18;;;21.50;67.00;;;;;;4906730;29;20022;-79
2022/05/02 17:58:38;;;;;;;10.23;6.45;;;21.20;68.20;;;;;;4906959;29;20051;-78
2022/05/02 18:01:29;;;;;;;9.05;6.70;;;20.90;69.10;;;;;;4907529;29;20068;-79
2022/05/02 18:03:55;;;;;;;7.13;5.95;;;20.70;69.60;;;;;;4906916;29;20036;-80
2022/05/02 18:06:34;;;;;;;9.35;6.68;;;20.50;70.30;;;;;;4907024;29;20021;-79
2022/05/02 18:09:12;;;;;;;9.80;7.35;;;20.30;71.10;;;;;;4888108;29;20033;-80
2022/05/02 18:15:11;;;;;;;12.43;6.45;;;19.80;72.30;;;;;;4900169;29;20080;-79
2022/05/02 18:18:01;;;;;;;9.27;7.57;;;19.80;73.10;;;;;;4904474;29;20326;-78
2022/05/02 18:20:31;;;;;;;13.63;9.05;;;19.60;73.60;;;;;;4905060;29;20362;-78
2022/05/02 18:23:11;;;;;;;10.68;8.10;;;19.40;74.20;;;;;;4908086;29;20039;-77
2022/05/02 18:25:41;;;;;;;10.32;8.32;;;19.10;75.10;;;;;;4887348;29;20364;-80
2022/05/02 18:28:24;;;;;;;10.00;7.43;;;18.90;75.80;;;;;;4888148;29;20124;-79
2022/05/02 18:31:56;;;;;;;13.25;7.78;;;18.70;76.40;;;;;;4904860;29;20043;-78
2022/05/02 18:35:49;;;;;;;10.73;6.70;;;18.50;77.70;;;;;;4901817;29;20226;-77
2022/05/02 18:37:15;;;;;;;7.88;6.45;;;18.20;78.50;;;;;;4904748;29;20036;-80
2022/05/02 18:43:13;;;;;;;12.63;8.50;;;17.90;80.30;;;;;;4916360;29;20036;-77
2022/05/02 18:55:57;;;;;;;10.00;7.63;;;17.20;82.90;;;;;;4891879;29;20048;-79
2022/05/02 18:58:27;;;;;;;10.85;7.80;;;17.10;83.80;;;;;;4891603;29;20033;-79
2022/05/02 19:01:19;;;;;;;11.00;7.50;;;17.00;84.00;;;;;;4890586;29;20037;-78
2022/05/02 19:03:51;;;;;;;10.35;7.93;;;16.90;84.40;;;;;;4908218;29;20244;-81
2022/05/02 19:06:22;;;;;;;11.10;7.30;;;16.90;84.80;;;;;;4908843;29;20044;-79
2022/05/02 19:09:16;;;;;;;10.10;7.95;;;16.80;84.90;;;;;;4909068;29;20055;-80
2022/05/02 19:11:47;;;;;;;10.35;7.70;;;16.80;85.30;;;;;;4890113;29;20037;-79
2022/05/02 19:14:51;;;;;;;10.50;7.00;;;16.70;85.60;;;;;;4891037;29;20081;-79
2022/05/02 19:17:19;;;;;;;10.35;7.82;;;16.60;85.70;;;;;;4889262;29;20346;-77
2022/05/02 19:19:45;;;;;;;10.40;7.22;;;16.60;86.10;;;;;;4904302;29;20305;-78
2022/05/02 19:22:57;;;;;;;9.65;7.32;;;16.50;86.10;;;;;;4909524;29;20043;-79
2022/05/02 19:30:14;;;;;;;8.98;6.90;;;16.40;86.50;;;;;;4911961;29;20023;-79
2022/05/02 19:33:06;;;;;;;10.00;7.43;;;16.30;87.00;;;;;;4889556;29;20056;-79
2022/05/02 19:39:33;;;;;;;11.43;8.73;;;16.20;87.40;;;;;;4889932;29;20032;-78
2022/05/02 19:42:03;;;;;;;13.48;9.55;;;16.10;87.80;;;;;;4869801;29;20060;-79
2022/05/02 20:22:38;;;;;;;13.80;9.90;;;15.20;91.10;;;;;;4904725;29;20262;-79
2022/05/02 20:25:06;;;;;;;12.15;9.00;;;15.10;91.40;;;;;;4908077;29;20069;-79
2022/05/02 20:27:35;;;;;;;12.88;9.07;;;15.00;91.70;;;;;;4906496;29;20267;-79
2022/05/02 20:36:41;;;;;;;12.38;9.38;;;14.80;92.00;;;;;;4902780;29;19915;-78
2022/05/02 20:39:07;;;;;;;9.68;8.18;;;14.70;92.00;;;;;;4907799;29;20036;-79
2022/05/02 21:00:15;;;;;;;12.40;8.75;;;14.30;92.20;;;;;;5496372;23;20052;-77
2022/05/02 21:02:46;;;;;;;12.77;9.02;;;14.30;92.70;;;;;;4914921;29;20066;-78
2022/05/02 21:05:13;;;;;;;12.27;8.60;;;14.30;92.50;;;;;;4914423;29;20058;-77
2022/05/02 21:07:40;;;;;;;11.45;8.45;;;14.30;92.40;;;;;;4922115;29;20325;-78
2022/05/02 21:14:06;;;;;;;13.60;8.55;;;14.10;92.90;;;;;;4905934;29;20065;-78
2022/05/02 21:16:45;;;;;;;10.98;8.43;;;14.10;92.70;;;;;;4906909;29;20052;-79
2022/05/02 21:19:19;;;;;;;12.18;8.27;;;14.10;93.10;;;;;;4907461;29;20218;-78
2022/05/02 21:21:50;;;;;;;10.73;8.65;;;14.00;92.90;;;;;;4905488;29;20041;-79
2022/05/02 21:24:23;;;;;;;13.13;9.13;;;14.00;93.00;;;;;;4906192;29;20044;-79
2022/05/02 21:27:03;;;;;;;11.25;8.20;;;13.90;93.20;;;;;;4905681;29;20052;-77
2022/05/02 21:29:45;;;;;;;9.85;7.90;;;13.90;93.40;;;;;;4905971;29;20084;-78
2022/05/02 21:35:39;;;;;;;9.38;7.00;;;13.70;93.30;;;;;;4906339;29;20047;-79
2022/05/02 21:38:07;;;;;;;9.98;6.90;;;13.70;93.30;;;;;;4906226;29;20341;-78
2022/05/02 21:40:40;;;;;;;9.13;6.80;;;13.60;93.20;;;;;;4907524;29;20040;-81
2022/05/02 21:46:53;;;;;;;9.05;7.10;;;13.70;93.20;;;;;;4891268;29;20318;-78
2022/05/02 21:52:49;;;;;;;12.60;7.60;;;13.60;93.40;;;;;;4886725;29;20029;-77
2022/05/02 21:55:14;;;;;;;10.82;7.18;;;13.60;93.50;;;;;;4888558;29;20033;-79
2022/05/02 21:57:40;;;;;;;10.00;7.50;;;13.50;93.40;;;;;;4903031;29;20013;-77